sensor_id;sensor_type;location;lat;lon;timestamp;pressure;altitude;pressure_sealevel;temperature;humidity
40117;BME280;25829;50.228;18.936;2023-05-08T00:02:58;99509.31;;;5.37;66.17
40117;BME280;25829;50.228;18.936;2023-05-08T00:06:05;99504.06;;;5.37;66.43
40117;BME280;25829;50.228;18.936;2023-05-08T00:09:06;99509.66;;;5.42;66.29
40117;BME280;25829;50.228;18.936;2023-05-08T00:12:10;99516.41;;;5.45;66.00
40117;BME280;25829;50.228;18.936;2023-05-08T00:15:11;99511.88;;;5.47;65.24
40117;BME280;25829;50.228;18.936;2023-05-08T00:18:17;99516.78;;;5.50;64.98
40117;BME280;25829;50.228;18.936;2023-05-08T00:21:17;99516.63;;;5.51;64.70
40117;BME280;25829;50.228;18.936;2023-05-08T00:24:18;99517.16;;;5.55;64.20
40117;BME280;25829;50.228;18.936;2023-05-08T00:27:19;99520.44;;;5.57;64.61
40117;BME280;25829;50.228;18.936;2023-05-08T00:30:20;99517.69;;;5.58;64.25
40117;BME280;25829;50.228;18.936;2023-05-08T00:33:27;99516.56;;;5.61;64.99
40117;BME280;25829;50.228;18.936;2023-05-08T00:36:33;99524.44;;;5.61;64.35
40117;BME280;25829;50.228;18.936;2023-05-08T00:39:34;99530.56;;;5.52;64.30
40117;BME280;25829;50.228;18.936;2023-05-08T00:42:44;99519.56;;;5.48;64.07
40117;BME280;25829;50.228;18.936;2023-05-08T00:45:45;99522.34;;;5.47;64.46
40117;BME280;25829;50.228;18.936;2023-05-08T00:48:46;99515.31;;;5.47;64.75
40117;BME280;25829;50.228;18.936;2023-05-08T00:51:49;99511.69;;;5.48;64.60
40117;BME280;25829;50.228;18.936;2023-05-08T00:54:50;99514.31;;;5.48;64.36
40117;BME280;25829;50.228;18.936;2023-05-08T00:57:52;99515.72;;;5.43;64.10
40117;BME280;25829;50.228;18.936;2023-05-08T01:00:54;99512.75;;;5.38;63.98
40117;BME280;25829;50.228;18.936;2023-05-08T01:03:56;99524.56;;;5.42;64.49
40117;BME280;25829;50.228;18.936;2023-05-08T01:07:06;99514.09;;;5.42;64.37
40117;BME280;25829;50.228;18.936;2023-05-08T01:10:10;99511.34;;;5.43;64.26
40117;BME280;25829;50.228;18.936;2023-05-08T01:23:42;99522.41;;;5.55;63.41
40117;BME280;25829;50.228;18.936;2023-05-08T01:34:05;99533.47;;;5.49;63.21
40117;BME280;25829;50.228;18.936;2023-05-08T01:37:26;99538.03;;;5.47;63.13
40117;BME280;25829;50.228;18.936;2023-05-08T01:40:51;99537.06;;;5.48;62.74
40117;BME280;25829;50.228;18.936;2023-05-08T01:44:12;99543.28;;;5.47;62.64
40117;BME280;25829;50.228;18.936;2023-05-08T01:47:15;99543.94;;;5.49;62.87
40117;BME280;25829;50.228;18.936;2023-05-08T01:50:32;99545.56;;;5.50;62.91
40117;BME280;25829;50.228;18.936;2023-05-08T01:53:40;99544.22;;;5.46;62.64
40117;BME280;25829;50.228;18.936;2023-05-08T02:00:14;99535.94;;;5.50;63.13
40117;BME280;25829;50.228;18.936;2023-05-08T02:03:19;99536.91;;;5.49;62.60
40117;BME280;25829;50.228;18.936;2023-05-08T02:06:25;99535.09;;;5.50;62.74
40117;BME280;25829;50.228;18.936;2023-05-08T02:09:33;99534.44;;;5.48;62.53
40117;BME280;25829;50.228;18.936;2023-05-08T02:12:44;99531.28;;;5.44;62.58
40117;BME280;25829;50.228;18.936;2023-05-08T02:15:48;99544.38;;;5.44;63.43
40117;BME280;25829;50.228;18.936;2023-05-08T02:18:51;99542.75;;;5.43;62.88
40117;BME280;25829;50.228;18.936;2023-05-08T02:22:03;99546.47;;;5.41;63.20
40117;BME280;25829;50.228;18.936;2023-05-08T02:25:11;99540.84;;;5.35;63.25
40117;BME280;25829;50.228;18.936;2023-05-08T02:28:15;99549.22;;;5.39;63.53
40117;BME280;25829;50.228;18.936;2023-05-08T02:31:18;99539.28;;;5.43;63.64
40117;BME280;25829;50.228;18.936;2023-05-08T02:34:20;99544.81;;;5.40;63.70
40117;BME280;25829;50.228;18.936;2023-05-08T02:37:23;99545.66;;;5.40;63.44
40117;BME280;25829;50.228;18.936;2023-05-08T02:40:31;99547.28;;;5.41;63.97
40117;BME280;25829;50.228;18.936;2023-05-08T02:43:40;99547.59;;;5.38;64.17
40117;BME280;25829;50.228;18.936;2023-05-08T02:47:07;99543.16;;;5.39;64.42
40117;BME280;25829;50.228;18.936;2023-05-08T02:50:56;99542.81;;;5.33;64.90
40117;BME280;25829;50.228;18.936;2023-05-08T02:54:17;99546.13;;;5.26;64.52
40117;BME280;25829;50.228;18.936;2023-05-08T03:00:31;99556.38;;;5.19;64.04
40117;BME280;25829;50.228;18.936;2023-05-08T03:03:41;99551.56;;;5.15;64.39
40117;BME280;25829;50.228;18.936;2023-05-08T03:06:50;99556.13;;;5.12;64.04
40117;BME280;25829;50.228;18.936;2023-05-08T03:10:04;99560.53;;;5.12;63.96
40117;BME280;25829;50.228;18.936;2023-05-08T03:13:06;99558.50;;;5.06;63.95
40117;BME280;25829;50.228;18.936;2023-05-08T03:16:32;99563.28;;;5.10;64.36
40117;BME280;25829;50.228;18.936;2023-05-08T03:19:38;99562.91;;;5.05;63.69
40117;BME280;25829;50.228;18.936;2023-05-08T03:22:42;99563.03;;;5.04;63.53
40117;BME280;25829;50.228;18.936;2023-05-08T03:25:44;99567.91;;;4.99;63.72
40117;BME280;25829;50.228;18.936;2023-05-08T03:28:47;99557.72;;;4.96;63.28
40117;BME280;25829;50.228;18.936;2023-05-08T03:31:50;99559.53;;;4.95;62.75
40117;BME280;25829;50.228;18.936;2023-05-08T03:34:53;99562.13;;;4.95;63.47
40117;BME280;25829;50.228;18.936;2023-05-08T03:37:55;99572.16;;;5.00;62.70
40117;BME280;25829;50.228;18.936;2023-05-08T03:40:58;99570.81;;;4.96;62.74
40117;BME280;25829;50.228;18.936;2023-05-08T03:44:01;99569.81;;;4.97;63.14
40117;BME280;25829;50.228;18.936;2023-05-08T03:47:04;99562.13;;;4.95;62.63
40117;BME280;25829;50.228;18.936;2023-05-08T03:50:07;99568.59;;;4.91;62.59
40117;BME280;25829;50.228;18.936;2023-05-08T03:53:38;99573.53;;;4.94;62.76
40117;BME280;25829;50.228;18.936;2023-05-08T03:56:42;99567.91;;;4.99;63.04
40117;BME280;25829;50.228;18.936;2023-05-08T03:59:53;99577.47;;;5.08;62.65
40117;BME280;25829;50.228;18.936;2023-05-08T04:03:31;99579.53;;;5.14;62.06
40117;BME280;25829;50.228;18.936;2023-05-08T04:06:58;99576.47;;;5.19;62.97
40117;BME280;25829;50.228;18.936;2023-05-08T04:10:20;99578.13;;;5.20;62.41
40117;BME280;25829;50.228;18.936;2023-05-08T04:13:30;99574.91;;;5.26;62.17
40117;BME280;25829;50.228;18.936;2023-05-08T04:16:37;99582.75;;;5.26;62.16
40117;BME280;25829;50.228;18.936;2023-05-08T04:19:45;99581.13;;;5.25;62.30
40117;BME280;25829;50.228;18.936;2023-05-08T04:22:56;99585.81;;;5.21;62.04
40117;BME280;25829;50.228;18.936;2023-05-08T04:26:08;99589.94;;;5.24;62.37
40117;BME280;25829;50.228;18.936;2023-05-08T04:29:10;99587.31;;;5.24;62.16
40117;BME280;25829;50.228;18.936;2023-05-08T04:32:12;99601.91;;;5.26;62.13
40117;BME280;25829;50.228;18.936;2023-05-08T04:35:13;99599.72;;;5.22;62.07
40117;BME280;25829;50.228;18.936;2023-05-08T04:38:14;99611.69;;;5.24;61.88
40117;BME280;25829;50.228;18.936;2023-05-08T04:41:22;99608.38;;;5.22;62.51
40117;BME280;25829;50.228;18.936;2023-05-08T04:44:23;99612.38;;;5.26;62.77
40117;BME280;25829;50.228;18.936;2023-05-08T04:47:27;99616.63;;;5.27;62.41
40117;BME280;25829;50.228;18.936;2023-05-08T04:50:28;99620.53;;;5.23;61.85
40117;BME280;25829;50.228;18.936;2023-05-08T04:53:29;99623.00;;;5.15;62.16
40117;BME280;25829;50.228;18.936;2023-05-08T04:56:33;99627.59;;;5.13;62.40
40117;BME280;25829;50.228;18.936;2023-05-08T04:59:36;99628.56;;;5.12;62.16
40117;BME280;25829;50.228;18.936;2023-05-08T05:02:38;99624.97;;;5.13;62.33
40117;BME280;25829;50.228;18.936;2023-05-08T05:05:39;99635.81;;;5.18;62.50
40117;BME280;25829;50.228;18.936;2023-05-08T05:08:46;99637.69;;;5.26;62.09
40117;BME280;25829;50.228;18.936;2023-05-08T05:11:50;99636.41;;;5.40;62.40
40117;BME280;25829;50.228;18.936;2023-05-08T05:14:53;99641.34;;;5.43;61.60
40117;BME280;25829;50.228;18.936;2023-05-08T05:17:54;99651.53;;;5.46;61.46
40117;BME280;25829;50.228;18.936;2023-05-08T05:20:57;99654.59;;;5.41;61.51
40117;BME280;25829;50.228;18.936;2023-05-08T05:23:59;99662.81;;;5.46;61.73
40117;BME280;25829;50.228;18.936;2023-05-08T05:27:01;99655.38;;;5.51;61.48
40117;BME280;25829;50.228;18.936;2023-05-08T05:30:02;99660.03;;;5.57;62.13
40117;BME280;25829;50.228;18.936;2023-05-08T05:33:05;99667.59;;;5.60;60.96
40117;BME280;25829;50.228;18.936;2023-05-08T05:36:06;99667.47;;;5.52;61.02
40117;BME280;25829;50.228;18.936;2023-05-08T05:39:08;99666.66;;;5.52;61.05
40117;BME280;25829;50.228;18.936;2023-05-08T05:42:10;99669.81;;;5.55;61.66
40117;BME280;25829;50.228;18.936;2023-05-08T05:45:12;99672.97;;;5.59;61.11
40117;BME280;25829;50.228;18.936;2023-05-08T05:48:13;99669.53;;;5.58;60.57
40117;BME280;25829;50.228;18.936;2023-05-08T05:51:14;99674.31;;;5.63;61.07
40117;BME280;25829;50.228;18.936;2023-05-08T05:54:16;99683.84;;;5.64;60.75
40117;BME280;25829;50.228;18.936;2023-05-08T05:57:18;99682.56;;;5.68;60.83
40117;BME280;25829;50.228;18.936;2023-05-08T06:00:20;99693.34;;;5.65;60.29
40117;BME280;25829;50.228;18.936;2023-05-08T06:03:25;99697.78;;;5.55;60.86
40117;BME280;25829;50.228;18.936;2023-05-08T06:06:27;99708.81;;;5.49;60.45
40117;BME280;25829;50.228;18.936;2023-05-08T06:09:28;99707.19;;;5.48;60.66
40117;BME280;25829;50.228;18.936;2023-05-08T06:12:29;99700.16;;;5.48;60.59
40117;BME280;25829;50.228;18.936;2023-05-08T06:15:34;99708.91;;;5.57;60.95
40117;BME280;25829;50.228;18.936;2023-05-08T06:18:41;99704.09;;;5.62;61.05
40117;BME280;25829;50.228;18.936;2023-05-08T06:21:43;99702.97;;;5.65;60.96
40117;BME280;25829;50.228;18.936;2023-05-08T06:24:46;99709.84;;;5.66;60.64
40117;BME280;25829;50.228;18.936;2023-05-08T06:27:47;99709.31;;;5.62;60.45
40117;BME280;25829;50.228;18.936;2023-05-08T06:30:57;99711.84;;;5.54;60.33
40117;BME280;25829;50.228;18.936;2023-05-08T06:33:58;99715.56;;;5.51;60.25
40117;BME280;25829;50.228;18.936;2023-05-08T06:36:59;99715.28;;;5.54;61.03
40117;BME280;25829;50.228;18.936;2023-05-08T06:40:00;99728.50;;;5.53;60.93
40117;BME280;25829;50.228;18.936;2023-05-08T06:43:03;99712.13;;;5.51;61.46
40117;BME280;25829;50.228;18.936;2023-05-08T06:46:05;99729.88;;;5.57;61.36
40117;BME280;25829;50.228;18.936;2023-05-08T06:49:06;99724.47;;;5.68;61.46
40117;BME280;25829;50.228;18.936;2023-05-08T06:52:07;99716.13;;;5.82;61.00
40117;BME280;25829;50.228;18.936;2023-05-08T06:55:08;99721.06;;;5.86;60.82
40117;BME280;25829;50.228;18.936;2023-05-08T06:58:12;99725.97;;;5.98;60.91
40117;BME280;25829;50.228;18.936;2023-05-08T07:01:14;99737.09;;;6.10;60.94
40117;BME280;25829;50.228;18.936;2023-05-08T07:04:15;99734.53;;;6.18;59.63
40117;BME280;25829;50.228;18.936;2023-05-08T07:07:16;99737.28;;;6.26;59.78
40117;BME280;25829;50.228;18.936;2023-05-08T07:10:20;99737.28;;;6.44;59.52
40117;BME280;25829;50.228;18.936;2023-05-08T07:13:22;99745.44;;;6.59;58.80
40117;BME280;25829;50.228;18.936;2023-05-08T07:16:23;99749.56;;;6.62;58.51
40117;BME280;25829;50.228;18.936;2023-05-08T07:19:29;99764.38;;;6.53;58.84
40117;BME280;25829;50.228;18.936;2023-05-08T07:22:31;99760.25;;;6.50;58.23
40117;BME280;25829;50.228;18.936;2023-05-08T07:25:32;99752.03;;;6.45;58.06
40117;BME280;25829;50.228;18.936;2023-05-08T07:28:33;99757.28;;;6.45;57.97
40117;BME280;25829;50.228;18.936;2023-05-08T07:31:42;99754.13;;;6.42;58.03
40117;BME280;25829;50.228;18.936;2023-05-08T07:34:45;99758.38;;;6.43;58.33
40117;BME280;25829;50.228;18.936;2023-05-08T07:37:46;99756.16;;;6.48;58.96
40117;BME280;25829;50.228;18.936;2023-05-08T07:40:47;99758.72;;;6.58;57.56
40117;BME280;25829;50.228;18.936;2023-05-08T07:43:57;99760.06;;;6.62;57.04
40117;BME280;25829;50.228;18.936;2023-05-08T07:46:59;99764.66;;;6.68;56.02
40117;BME280;25829;50.228;18.936;2023-05-08T07:50:06;99758.84;;;6.74;56.82
40117;BME280;25829;50.228;18.936;2023-05-08T07:53:07;99755.38;;;6.91;56.96
40117;BME280;25829;50.228;18.936;2023-05-08T07:56:08;99746.81;;;7.07;56.33
40117;BME280;25829;50.228;18.936;2023-05-08T07:59:18;99745.66;;;7.36;56.96
40117;BME280;25829;50.228;18.936;2023-05-08T08:02:20;99748.59;;;7.59;56.60
40117;BME280;25829;50.228;18.936;2023-05-08T08:05:23;99752.59;;;7.71;55.59
40117;BME280;25829;50.228;18.936;2023-05-08T08:08:24;99754.31;;;7.80;55.63
40117;BME280;25829;50.228;18.936;2023-05-08T08:11:25;99747.34;;;7.71;54.37
40117;BME280;25829;50.228;18.936;2023-05-08T08:14:26;99746.44;;;7.80;55.10
40117;BME280;25829;50.228;18.936;2023-05-08T08:17:28;99757.16;;;7.95;55.31
40117;BME280;25829;50.228;18.936;2023-05-08T08:20:38;99750.31;;;8.10;54.61
40117;BME280;25829;50.228;18.936;2023-05-08T08:23:42;99762.47;;;8.19;54.17
40117;BME280;25829;50.228;18.936;2023-05-08T08:26:46;99751.66;;;8.23;54.10
40117;BME280;25829;50.228;18.936;2023-05-08T08:29:47;99753.66;;;8.37;52.44
40117;BME280;25829;50.228;18.936;2023-05-08T08:32:48;99775.69;;;8.44;53.21
40117;BME280;25829;50.228;18.936;2023-05-08T08:35:48;99762.84;;;8.41;52.43
40117;BME280;25829;50.228;18.936;2023-05-08T08:38:49;99759.59;;;8.39;53.13
40117;BME280;25829;50.228;18.936;2023-05-08T08:41:50;99762.84;;;8.33;52.71
40117;BME280;25829;50.228;18.936;2023-05-08T08:44:51;99765.16;;;8.28;52.65
40117;BME280;25829;50.228;18.936;2023-05-08T08:47:52;99759.41;;;8.40;53.49
40117;BME280;25829;50.228;18.936;2023-05-08T08:51:01;99772.09;;;8.61;51.74
40117;BME280;25829;50.228;18.936;2023-05-08T08:54:28;99773.09;;;8.68;52.79
40117;BME280;25829;50.228;18.936;2023-05-08T08:57:35;99776.75;;;8.76;53.78
40117;BME280;25829;50.228;18.936;2023-05-08T09:00:40;99776.41;;;8.71;52.98
40117;BME280;25829;50.228;18.936;2023-05-08T09:03:45;99787.59;;;8.81;52.05
40117;BME280;25829;50.228;18.936;2023-05-08T09:06:54;99764.38;;;8.92;50.77
40117;BME280;25829;50.228;18.936;2023-05-08T09:09:57;99781.50;;;9.13;51.87
40117;BME280;25829;50.228;18.936;2023-05-08T09:13:02;99779.31;;;10.05;53.19
40117;BME280;25829;50.228;18.936;2023-05-08T09:16:07;99779.25;;;10.98;51.88
40117;BME280;25829;50.228;18.936;2023-05-08T09:19:09;99776.72;;;11.43;50.75
40117;BME280;25829;50.228;18.936;2023-05-08T09:22:19;99785.72;;;11.34;48.21
40117;BME280;25829;50.228;18.936;2023-05-08T09:25:23;99771.81;;;10.79;47.55
40117;BME280;25829;50.228;18.936;2023-05-08T09:28:24;99775.94;;;10.50;49.42
40117;BME280;25829;50.228;18.936;2023-05-08T09:31:40;99763.44;;;10.44;50.55
40117;BME280;25829;50.228;18.936;2023-05-08T09:34:53;99770.06;;;10.40;48.30
40117;BME280;25829;50.228;18.936;2023-05-08T09:37:57;99769.47;;;10.30;50.04
40117;BME280;25829;50.228;18.936;2023-05-08T09:44:10;99765.09;;;10.14;48.89
40117;BME280;25829;50.228;18.936;2023-05-08T09:47:20;99766.16;;;9.97;48.83
40117;BME280;25829;50.228;18.936;2023-05-08T09:50:27;99762.13;;;9.78;49.64
40117;BME280;25829;50.228;18.936;2023-05-08T09:53:49;99757.44;;;9.57;49.09
40117;BME280;25829;50.228;18.936;2023-05-08T09:56:59;99764.22;;;9.43;49.60
40117;BME280;25829;50.228;18.936;2023-05-08T10:00:22;99759.28;;;9.40;50.59
40117;BME280;25829;50.228;18.936;2023-05-08T10:03:44;99753.50;;;9.45;49.91
40117;BME280;25829;50.228;18.936;2023-05-08T10:06:58;99747.88;;;9.48;49.66
40117;BME280;25829;50.228;18.936;2023-05-08T10:10:01;99743.44;;;9.56;50.52
40117;BME280;25829;50.228;18.936;2023-05-08T10:13:04;99746.38;;;9.70;49.02
40117;BME280;25829;50.228;18.936;2023-05-08T10:16:10;99749.44;;;9.81;49.12
40117;BME280;25829;50.228;18.936;2023-05-08T10:19:33;99746.75;;;9.90;48.78
40117;BME280;25829;50.228;18.936;2023-05-08T10:22:44;99748.50;;;10.05;49.71
40117;BME280;25829;50.228;18.936;2023-05-08T10:26:00;99736.06;;;10.22;49.77
40117;BME280;25829;50.228;18.936;2023-05-08T10:29:22;99740.41;;;10.38;48.81
40117;BME280;25829;50.228;18.936;2023-05-08T10:32:36;99736.59;;;10.41;48.21
40117;BME280;25829;50.228;18.936;2023-05-08T10:35:46;99754.25;;;10.40;46.74
40117;BME280;25829;50.228;18.936;2023-05-08T10:38:49;99750.13;;;10.38;48.04
40117;BME280;25829;50.228;18.936;2023-05-08T10:41:50;99723.97;;;10.28;47.45
40117;BME280;25829;50.228;18.936;2023-05-08T10:45:00;99738.97;;;10.27;47.66
40117;BME280;25829;50.228;18.936;2023-05-08T10:51:22;99722.31;;;10.35;49.13
40117;BME280;25829;50.228;18.936;2023-05-08T10:54:41;99736.66;;;10.55;48.64
40117;BME280;25829;50.228;18.936;2023-05-08T10:58:13;99728.03;;;10.62;47.13
40117;BME280;25829;50.228;18.936;2023-05-08T11:01:20;99734.00;;;10.55;48.16
40117;BME280;25829;50.228;18.936;2023-05-08T11:04:27;99733.03;;;10.56;47.78
40117;BME280;25829;50.228;18.936;2023-05-08T11:08:00;99727.28;;;10.53;46.97
40117;BME280;25829;50.228;18.936;2023-05-08T11:11:04;99725.97;;;10.49;47.50
40117;BME280;25829;50.228;18.936;2023-05-08T11:14:13;99716.44;;;10.48;47.54
40117;BME280;25829;50.228;18.936;2023-05-08T11:17:22;99722.00;;;10.53;47.38
40117;BME280;25829;50.228;18.936;2023-05-08T11:20:37;99727.28;;;10.53;47.26
40117;BME280;25829;50.228;18.936;2023-05-08T11:23:38;99729.94;;;10.53;47.44
40117;BME280;25829;50.228;18.936;2023-05-08T11:26:39;99729.63;;;10.48;47.02
40117;BME280;25829;50.228;18.936;2023-05-08T11:29:43;99726.97;;;10.48;46.71
40117;BME280;25829;50.228;18.936;2023-05-08T11:33:18;99722.13;;;10.59;45.61
40117;BME280;25829;50.228;18.936;2023-05-08T11:36:25;99719.41;;;10.68;46.13
40117;BME280;25829;50.228;18.936;2023-05-08T11:39:27;99718.94;;;10.64;46.51
40117;BME280;25829;50.228;18.936;2023-05-08T11:42:36;99711.25;;;10.54;46.24
40117;BME280;25829;50.228;18.936;2023-05-08T11:45:39;99712.16;;;10.47;46.76
40117;BME280;25829;50.228;18.936;2023-05-08T11:49:24;99703.78;;;10.43;46.32
40117;BME280;25829;50.228;18.936;2023-05-08T11:52:35;99700.69;;;10.31;46.92
40117;BME280;25829;50.228;18.936;2023-05-08T11:55:39;99710.69;;;10.21;46.11
40117;BME280;25829;50.228;18.936;2023-05-08T11:58:41;99702.66;;;10.15;46.63
40117;BME280;25829;50.228;18.936;2023-05-08T12:01:42;99716.78;;;10.22;45.70
40117;BME280;25829;50.228;18.936;2023-05-08T12:04:46;99718.75;;;10.20;47.20
40117;BME280;25829;50.228;18.936;2023-05-08T12:11:21;99712.56;;;10.35;46.47
40117;BME280;25829;50.228;18.936;2023-05-08T12:14:23;99708.84;;;10.45;45.96
40117;BME280;25829;50.228;18.936;2023-05-08T12:17:26;99713.78;;;10.48;45.71
40117;BME280;25829;50.228;18.936;2023-05-08T12:20:27;99711.09;;;10.56;46.01
40117;BME280;25829;50.228;18.936;2023-05-08T12:23:28;99706.81;;;10.55;45.37
40117;BME280;25829;50.228;18.936;2023-05-08T12:26:33;99707.81;;;10.54;45.69
40117;BME280;25829;50.228;18.936;2023-05-08T12:29:35;99708.94;;;10.59;45.65
40117;BME280;25829;50.228;18.936;2023-05-08T12:32:40;99700.56;;;10.56;45.15
40117;BME280;25829;50.228;18.936;2023-05-08T12:35:42;99710.72;;;10.59;45.85
40117;BME280;25829;50.228;18.936;2023-05-08T12:38:43;99698.66;;;10.65;45.73
40117;BME280;25829;50.228;18.936;2023-05-08T12:41:53;99687.06;;;10.74;45.30
40117;BME280;25829;50.228;18.936;2023-05-08T12:45:01;99698.09;;;10.77;45.74
40117;BME280;25829;50.228;18.936;2023-05-08T12:48:07;99701.94;;;10.90;43.99
40117;BME280;25829;50.228;18.936;2023-05-08T12:51:11;99694.19;;;10.88;45.40
40117;BME280;25829;50.228;18.936;2023-05-08T12:54:41;99682.94;;;11.09;45.76
40117;BME280;25829;50.228;18.936;2023-05-08T12:57:45;99699.44;;;11.26;45.28
40117;BME280;25829;50.228;18.936;2023-05-08T13:00:48;99696.97;;;11.24;43.98
40117;BME280;25829;50.228;18.936;2023-05-08T13:04:06;99685.41;;;11.25;44.32
40117;BME280;25829;50.228;18.936;2023-05-08T13:07:07;99691.31;;;11.27;44.20
40117;BME280;25829;50.228;18.936;2023-05-08T13:10:08;99692.59;;;11.32;44.69
40117;BME280;25829;50.228;18.936;2023-05-08T13:13:19;99692.16;;;11.43;44.57
40117;BME280;25829;50.228;18.936;2023-05-08T13:16:20;99688.41;;;11.37;44.05
40117;BME280;25829;50.228;18.936;2023-05-08T13:19:25;99706.53;;;11.25;43.69
40117;BME280;25829;50.228;18.936;2023-05-08T13:22:32;99689.59;;;11.20;44.20
40117;BME280;25829;50.228;18.936;2023-05-08T13:25:35;99685.94;;;11.21;44.26
40117;BME280;25829;50.228;18.936;2023-05-08T13:28:41;99687.88;;;11.27;44.35
40117;BME280;25829;50.228;18.936;2023-05-08T13:31:44;99689.06;;;11.39;44.91
40117;BME280;25829;50.228;18.936;2023-05-08T13:34:45;99689.88;;;11.40;43.65
40117;BME280;25829;50.228;18.936;2023-05-08T13:37:47;99688.59;;;11.36;44.74
40117;BME280;25829;50.228;18.936;2023-05-08T13:40:50;99693.59;;;11.30;44.54
40117;BME280;25829;50.228;18.936;2023-05-08T13:43:51;99683.66;;;11.18;44.22
40117;BME280;25829;50.228;18.936;2023-05-08T13:46:55;99692.03;;;11.06;43.38
40117;BME280;25829;50.228;18.936;2023-05-08T13:49:56;99681.38;;;11.00;43.95
40117;BME280;25829;50.228;18.936;2023-05-08T13:52:57;99683.03;;;11.01;43.82
40117;BME280;25829;50.228;18.936;2023-05-08T13:56:00;99685.00;;;10.99;43.13
40117;BME280;25829;50.228;18.936;2023-05-08T13:59:04;99685.38;;;10.96;44.13
40117;BME280;25829;50.228;18.936;2023-05-08T14:02:05;99669.16;;;10.99;44.26
40117;BME280;25829;50.228;18.936;2023-05-08T14:05:09;99666.28;;;11.09;42.85
40117;BME280;25829;50.228;18.936;2023-05-08T14:08:10;99661.53;;;11.19;44.22
40117;BME280;25829;50.228;18.936;2023-05-08T14:11:11;99669.56;;;11.25;43.97
40117;BME280;25829;50.228;18.936;2023-05-08T14:14:37;99667.75;;;11.26;43.37
40117;BME280;25829;50.228;18.936;2023-05-08T14:17:38;99668.25;;;11.21;44.66
40117;BME280;25829;50.228;18.936;2023-05-08T14:20:42;99670.28;;;11.19;43.70
40117;BME280;25829;50.228;18.936;2023-05-08T14:23:52;99674.56;;;11.05;43.72
40117;BME280;25829;50.228;18.936;2023-05-08T14:27:11;99673.81;;;10.97;44.03
40117;BME280;25829;50.228;18.936;2023-05-08T14:30:19;99671.91;;;10.91;44.69
40117;BME280;25829;50.228;18.936;2023-05-08T14:33:24;99671.81;;;10.84;43.50
40117;BME280;25829;50.228;18.936;2023-05-08T14:36:45;99680.69;;;10.83;43.55
40117;BME280;25829;50.228;18.936;2023-05-08T14:39:55;99672.63;;;10.85;43.93
40117;BME280;25829;50.228;18.936;2023-05-08T14:42:58;99677.00;;;10.92;44.83
40117;BME280;25829;50.228;18.936;2023-05-08T14:45:59;99682.47;;;10.91;44.49
40117;BME280;25829;50.228;18.936;2023-05-08T14:49:00;99687.81;;;10.82;44.72
40117;BME280;25829;50.228;18.936;2023-05-08T14:52:01;99682.41;;;10.76;44.79
40117;BME280;25829;50.228;18.936;2023-05-08T14:55:05;99673.69;;;10.75;44.51
40117;BME280;25829;50.228;18.936;2023-05-08T14:58:09;99675.31;;;10.76;44.63
40117;BME280;25829;50.228;18.936;2023-05-08T15:01:11;99688.69;;;10.75;44.27
40117;BME280;25829;50.228;18.936;2023-05-08T15:04:12;99669.50;;;10.81;44.15
40117;BME280;25829;50.228;18.936;2023-05-08T15:07:13;99677.69;;;10.86;44.00
40117;BME280;25829;50.228;18.936;2023-05-08T15:10:14;99674.72;;;10.89;43.61
40117;BME280;25829;50.228;18.936;2023-05-08T15:13:15;99677.53;;;10.88;43.86
40117;BME280;25829;50.228;18.936;2023-05-08T15:16:15;99673.06;;;10.88;44.19
40117;BME280;25829;50.228;18.936;2023-05-08T15:19:16;99677.53;;;10.88;44.28
40117;BME280;25829;50.228;18.936;2023-05-08T15:22:17;99683.53;;;10.81;44.21
40117;BME280;25829;50.228;18.936;2023-05-08T15:25:18;99678.97;;;10.75;44.24
40117;BME280;25829;50.228;18.936;2023-05-08T15:28:19;99679.00;;;10.67;43.73
40117;BME280;25829;50.228;18.936;2023-05-08T15:31:20;99673.28;;;10.64;43.84
40117;BME280;25829;50.228;18.936;2023-05-08T15:34:24;99677.19;;;10.68;44.02
40117;BME280;25829;50.228;18.936;2023-05-08T15:37:27;99673.72;;;10.67;44.07
40117;BME280;25829;50.228;18.936;2023-05-08T15:40:28;99671.91;;;10.68;44.65
40117;BME280;25829;50.228;18.936;2023-05-08T15:43:33;99673.91;;;10.66;43.97
40117;BME280;25829;50.228;18.936;2023-05-08T15:46:34;99667.88;;;10.57;44.35
40117;BME280;25829;50.228;18.936;2023-05-08T15:49:35;99669.50;;;10.58;44.81
40117;BME280;25829;50.228;18.936;2023-05-08T15:52:36;99670.97;;;10.61;45.06
40117;BME280;25829;50.228;18.936;2023-05-08T15:55:37;99662.06;;;10.62;45.18
40117;BME280;25829;50.228;18.936;2023-05-08T15:58:38;99659.25;;;10.63;45.29
40117;BME280;25829;50.228;18.936;2023-05-08T16:01:39;99667.34;;;10.62;44.70
40117;BME280;25829;50.228;18.936;2023-05-08T16:04:41;99652.22;;;10.55;44.25
40117;BME280;25829;50.228;18.936;2023-05-08T16:07:42;99657.13;;;10.58;44.68
40117;BME280;25829;50.228;18.936;2023-05-08T16:10:44;99656.63;;;10.63;44.68
40117;BME280;25829;50.228;18.936;2023-05-08T16:13:44;99650.50;;;10.63;44.82
40117;BME280;25829;50.228;18.936;2023-05-08T16:16:45;99651.34;;;10.63;45.11
40117;BME280;25829;50.228;18.936;2023-05-08T16:19:49;99650.78;;;10.68;45.62
40117;BME280;25829;50.228;18.936;2023-05-08T16:22:57;99656.25;;;10.66;44.62
40117;BME280;25829;50.228;18.936;2023-05-08T16:25:58;99652.03;;;10.57;45.05
40117;BME280;25829;50.228;18.936;2023-05-08T16:28:58;99651.75;;;10.52;45.18
40117;BME280;25829;50.228;18.936;2023-05-08T16:31:59;99660.56;;;10.44;45.32
40117;BME280;25829;50.228;18.936;2023-05-08T16:35:00;99651.44;;;10.32;45.72
40117;BME280;25829;50.228;18.936;2023-05-08T16:38:00;99659.84;;;10.27;45.89
40117;BME280;25829;50.228;18.936;2023-05-08T16:41:03;99662.34;;;10.29;46.17
40117;BME280;25829;50.228;18.936;2023-05-08T16:44:04;99671.22;;;10.28;46.04
40117;BME280;25829;50.228;18.936;2023-05-08T16:47:05;99663.69;;;10.25;45.79
40117;BME280;25829;50.228;18.936;2023-05-08T16:50:06;99658.56;;;10.23;45.67
40117;BME280;25829;50.228;18.936;2023-05-08T16:53:07;99650.97;;;10.28;46.09